Antonio B. Won Pat International Airport
PGUM : now visible

Airfield :











YOU CAN JOIN US ON...

 
LOGIN :

Register | Disclaimer

   EN    FR    IT 

 









Legend :    VFR   Marginal VFR   IFR   Intensive IFR   Very Intensive IFR
Visi :
Ceiling :
>= 8 km
>= 3000ft
5 to 8 km
1000 to 3000 ft
1500m to 5 km
500 to 1000 ft
800 to 1500m
200 to 500 ft
< 800m
< 200 ft
Symbols :   Thunderstorms  Fog  Heavy snow  Heavy precipitations  Wind > 20 kt






- Airport Elevation : 298 ft
- IATA code : GUM


PGUM - Antonio B. Won Pat International

CURRENT METAR :
  • 230654Z 10006KT 10SM CLR 29/24 A2984 RMK AO2 SLP095 T02940244

EXPIRED METARs :
  • 230554Z 14006KT 10SM FEW021 29/24 A2982 RMK AO2 SLP090 T02940244 10306 20294 55005
  • 230454Z 12006KT 10SM CLR 31/24 A2981 RMK AO2 SLP085 T03060239

TAF PGUM
Valid from the 23 at 06:00 until the 24 at 12:00 UTC


230521Z 2306/2412 11006KT P6SM VCSH FEW018 SCT050
FM232200 06011KT P6SM VCSH SCT020 SCT050



MET'MAP, your aeronautical weather chart ! - Copyright ORBIFLY December 2007 - Disclaimer

ORBIFLY MET'MAP TEAM :

Programming & Development : Alexandra Zaïnal
Concept & Development : Baudouin d'Aumeries
Co-Development & Prog : Marc-Olivier Méhu
Technical & hardware support : Manuel Goepfert

Contact : metmap@orbifly.com




SOURCES & CREDITS :

   NOAA       Earth
Advisory